sensor_id;sensor_type;location;lat;lon;timestamp;pressure;altitude;pressure_sealevel;temperature;humidity
61474;BME280;53694;49.784;30.150;2023-01-28T00:00:54;99989.02;;;-0.15;73.26
61474;BME280;53694;49.784;30.150;2023-01-28T00:01:55;99976.31;;;0.49;71.15
61474;BME280;53694;49.784;30.150;2023-01-28T00:02:57;99976.31;;;0.49;71.15
61474;BME280;53694;49.784;30.150;2023-01-28T00:03:58;99979.28;;;0.77;70.19
61474;BME280;53694;49.784;30.150;2023-01-28T00:05:00;99979.62;;;0.94;68.36
61474;BME280;53694;49.784;30.150;2023-01-28T00:06:06;99974.88;;;1.05;68.07
61474;BME280;53694;49.784;30.150;2023-01-28T00:07:08;99966.27;;;1.21;67.68
61474;BME280;53694;49.784;30.150;2023-01-28T00:08:09;99965.39;;;1.26;66.55
61474;BME280;53694;49.784;30.150;2023-01-28T00:09:11;99971.03;;;1.11;66.72
61474;BME280;53694;49.784;30.150;2023-01-28T00:10:13;99962.06;;;0.91;67.47
61474;BME280;53694;49.784;30.150;2023-01-28T00:11:15;99967.25;;;0.64;67.76
61474;BME280;53694;49.784;30.150;2023-01-28T00:12:16;99964.34;;;0.31;68.42
61474;BME280;53694;49.784;30.150;2023-01-28T00:13:18;99963.83;;;-0.05;69.67
61474;BME280;53694;49.784;30.150;2023-01-28T00:14:19;99969.76;;;-0.37;70.69
61474;BME280;53694;49.784;30.150;2023-01-28T00:15:21;99964.56;;;-0.68;71.77
61474;BME280;53694;49.784;30.150;2023-01-28T00:16:22;99967.93;;;-0.96;72.90
61474;BME280;53694;49.784;30.150;2023-01-28T00:17:24;99967.48;;;-1.19;73.88
61474;BME280;53694;49.784;30.150;2023-01-28T04:26:27;99961.04;;;-3.96;98.77
61474;BME280;53694;49.784;30.150;2023-01-28T04:27:29;99959.63;;;-4.04;98.48
61474;BME280;53694;49.784;30.150;2023-01-28T04:28:30;99956.71;;;-4.03;97.85
61474;BME280;53694;49.784;30.150;2023-01-28T04:29:32;99954.36;;;-3.94;97.45
61474;BME280;53694;49.784;30.150;2023-01-28T04:30:34;99955.04;;;-3.71;97.21
61474;BME280;53694;49.784;30.150;2023-01-28T04:31:35;99954.98;;;-3.34;96.43
61474;BME280;53694;49.784;30.150;2023-01-28T04:32:37;99955.68;;;-2.91;94.20
61474;BME280;53694;49.784;30.150;2023-01-28T04:33:38;99953.09;;;-2.50;91.86
61474;BME280;53694;49.784;30.150;2023-01-28T04:34:40;99954.45;;;-2.07;89.86
61474;BME280;53694;49.784;30.150;2023-01-28T04:35:41;99955.20;;;-1.66;88.05
61474;BME280;53694;49.784;30.150;2023-01-28T04:36:43;99957.28;;;-1.27;85.49
61474;BME280;53694;49.784;30.150;2023-01-28T04:37:44;99968.19;;;-0.93;83.47
61474;BME280;53694;49.784;30.150;2023-01-28T04:38:46;99966.63;;;-0.55;82.85
61474;BME280;53694;49.784;30.150;2023-01-28T04:39:48;99970.68;;;-0.18;81.57
61474;BME280;53694;49.784;30.150;2023-01-28T04:40:51;99969.36;;;0.14;78.86
61474;BME280;53694;49.784;30.150;2023-01-28T04:41:53;99971.77;;;0.44;77.60
61474;BME280;53694;49.784;30.150;2023-01-28T04:42:55;99969.30;;;0.72;75.71
61474;BME280;53694;49.784;30.150;2023-01-28T04:43:57;99975.28;;;0.93;74.33
61474;BME280;53694;49.784;30.150;2023-01-28T04:44:58;99971.30;;;1.09;71.51
61474;BME280;53694;49.784;30.150;2023-01-28T04:46:00;99972.72;;;1.25;71.22
61474;BME280;53694;49.784;30.150;2023-01-28T04:47:02;99978.20;;;1.39;70.37
61474;BME280;53694;49.784;30.150;2023-01-28T04:48:03;99977.28;;;1.49;69.17
61474;BME280;53694;49.784;30.150;2023-01-28T04:49:05;99974.41;;;1.59;67.67
61474;BME280;53694;49.784;30.150;2023-01-28T04:50:07;99976.55;;;1.62;67.31
61474;BME280;53694;49.784;30.150;2023-01-28T04:51:09;99979.30;;;1.57;66.62
61474;BME280;53694;49.784;30.150;2023-01-28T04:52:10;99973.89;;;1.38;67.06
61474;BME280;53694;49.784;30.150;2023-01-28T04:53:12;99971.03;;;1.11;67.28
61474;BME280;53694;49.784;30.150;2023-01-28T04:54:14;99970.87;;;0.78;68.48
61474;BME280;53694;49.784;30.150;2023-01-28T04:55:15;99971.20;;;0.47;69.50
61474;BME280;53694;49.784;30.150;2023-01-28T04:56:17;99967.75;;;0.13;70.48
61474;BME280;53694;49.784;30.150;2023-01-28T04:57:18;99970.44;;;-0.21;71.26
61474;BME280;53694;49.784;30.150;2023-01-28T04:58:20;99969.55;;;-0.51;72.51
61474;BME280;53694;49.784;30.150;2023-01-28T04:59:21;99970.21;;;-0.69;73.61
61474;BME280;53694;49.784;30.150;2023-01-28T05:00:23;99966.74;;;-0.75;73.81
61474;BME280;53694;49.784;30.150;2023-01-28T05:01:25;99958.33;;;-0.68;73.88
61474;BME280;53694;49.784;30.150;2023-01-28T05:02:26;99960.70;;;-0.57;73.40
61474;BME280;53694;49.784;30.150;2023-01-28T05:03:28;99958.71;;;-0.41;72.89
61474;BME280;53694;49.784;30.150;2023-01-28T05:04:29;99964.81;;;-0.25;72.36
61474;BME280;53694;49.784;30.150;2023-01-28T05:05:31;99954.38;;;-0.03;72.47
61474;BME280;53694;49.784;30.150;2023-01-28T05:06:33;99959.84;;;0.21;71.75
61474;BME280;53694;49.784;30.150;2023-01-28T05:07:35;99961.46;;;0.46;71.17
61474;BME280;53694;49.784;30.150;2023-01-28T05:08:37;99964.75;;;0.67;69.46
61474;BME280;53694;49.784;30.150;2023-01-28T05:09:38;99963.86;;;0.77;68.49
61474;BME280;53694;49.784;30.150;2023-01-28T05:10:40;99960.72;;;0.89;68.66
61474;BME280;53694;49.784;30.150;2023-01-28T05:11:41;99961.42;;;0.99;68.74
61474;BME280;53694;49.784;30.150;2023-01-28T05:12:44;99968.50;;;0.95;68.01
61474;BME280;53694;49.784;30.150;2023-01-28T05:13:45;99969.83;;;0.74;68.23
61474;BME280;53694;49.784;30.150;2023-01-28T05:14:47;99972.86;;;0.43;68.61
61474;BME280;53694;49.784;30.150;2023-01-28T05:15:51;99972.11;;;0.09;69.46
61474;BME280;53694;49.784;30.150;2023-01-28T05:16:53;99964.83;;;-0.30;70.49
61474;BME280;53694;49.784;30.150;2023-01-28T05:17:55;99962.12;;;-0.69;71.81
61474;BME280;53694;49.784;30.150;2023-01-28T05:18:56;99964.72;;;-1.04;73.21
61474;BME280;53694;49.784;30.150;2023-01-28T05:19:58;99964.79;;;-1.24;74.63
61474;BME280;53694;49.784;30.150;2023-01-28T05:20:59;99969.92;;;-1.22;75.73
61474;BME280;53694;49.784;30.150;2023-01-28T05:22:01;99975.78;;;-1.05;75.64
61474;BME280;53694;49.784;30.150;2023-01-28T05:23:02;99985.11;;;-0.82;75.10
61474;BME280;53694;49.784;30.150;2023-01-28T05:24:05;99971.48;;;-0.57;74.04
61474;BME280;53694;49.784;30.150;2023-01-28T05:25:08;99979.11;;;-0.24;73.46
61474;BME280;53694;49.784;30.150;2023-01-28T05:26:10;99973.27;;;-0.03;71.63
61474;BME280;53694;49.784;30.150;2023-01-28T05:27:11;99984.42;;;0.20;71.00
61474;BME280;53694;49.784;30.150;2023-01-28T05:28:12;99987.42;;;0.47;70.85
61474;BME280;53694;49.784;30.150;2023-01-28T05:29:14;99988.75;;;0.74;69.92
61474;BME280;53694;49.784;30.150;2023-01-28T05:30:17;99990.94;;;0.96;68.75
61474;BME280;53694;49.784;30.150;2023-01-28T05:31:18;99997.20;;;1.15;67.90
61474;BME280;53694;49.784;30.150;2023-01-28T05:32:20;99997.80;;;1.31;67.53
61474;BME280;53694;49.784;30.150;2023-01-28T05:33:22;100000.00;;;1.29;66.53
61474;BME280;53694;49.784;30.150;2023-01-28T05:34:23;99999.68;;;1.12;66.29
61474;BME280;53694;49.784;30.150;2023-01-28T05:35:25;99995.61;;;0.90;66.89
61474;BME280;53694;49.784;30.150;2023-01-28T05:36:27;100001.62;;;0.58;67.07
61474;BME280;53694;49.784;30.150;2023-01-28T05:37:28;99995.76;;;0.22;67.73
61474;BME280;53694;49.784;30.150;2023-01-28T05:38:30;99992.81;;;-0.16;68.80
61474;BME280;53694;49.784;30.150;2023-01-28T05:39:31;100002.19;;;-0.47;70.22
61474;BME280;53694;49.784;30.150;2023-01-28T05:40:33;100005.59;;;-0.76;71.20
61474;BME280;53694;49.784;30.150;2023-01-28T05:41:34;100002.45;;;-1.04;72.23
61474;BME280;53694;49.784;30.150;2023-01-28T05:42:36;100005.21;;;-1.24;72.97
61474;BME280;53694;49.784;30.150;2023-01-28T05:43:38;100010.34;;;-1.28;73.80
61474;BME280;53694;49.784;30.150;2023-01-28T05:44:39;100009.50;;;-1.13;74.29
61474;BME280;53694;49.784;30.150;2023-01-28T05:45:41;100009.15;;;-0.91;73.70
61474;BME280;53694;49.784;30.150;2023-01-28T05:46:43;100012.53;;;-0.65;73.42
61474;BME280;53694;49.784;30.150;2023-01-28T05:47:44;100013.98;;;-0.33;73.20
61474;BME280;53694;49.784;30.150;2023-01-28T05:48:46;100007.23;;;0.04;72.72
61474;BME280;53694;49.784;30.150;2023-01-28T05:49:47;100012.61;;;0.38;70.99
61474;BME280;53694;49.784;30.150;2023-01-28T05:50:49;100015.61;;;0.65;70.07
61474;BME280;53694;49.784;30.150;2023-01-28T05:51:51;100012.27;;;0.97;69.48
61474;BME280;53694;49.784;30.150;2023-01-28T05:52:52;100011.39;;;1.26;67.74
61474;BME280;53694;49.784;30.150;2023-01-28T05:53:54;100014.14;;;1.45;66.40
61474;BME280;53694;49.784;30.150;2023-01-28T05:54:56;100019.18;;;1.52;65.26
61474;BME280;53694;49.784;30.150;2023-01-28T05:55:57;100015.06;;;1.35;64.28
61474;BME280;53694;49.784;30.150;2023-01-28T05:56:59;100015.11;;;1.11;65.51
61474;BME280;53694;49.784;30.150;2023-01-28T05:58:01;100012.46;;;0.82;66.15
61474;BME280;53694;49.784;30.150;2023-01-28T05:59:03;100009.28;;;0.51;67.20
61474;BME280;53694;49.784;30.150;2023-01-28T06:00:05;100010.87;;;0.23;68.27
61474;BME280;53694;49.784;30.150;2023-01-28T06:01:07;100010.02;;;-0.07;69.44
61474;BME280;53694;49.784;30.150;2023-01-28T06:02:09;100008.85;;;-0.35;70.40
61474;BME280;53694;49.784;30.150;2023-01-28T06:03:11;100009.80;;;-0.60;71.22
61474;BME280;53694;49.784;30.150;2023-01-28T06:04:12;100005.88;;;-0.83;72.09
61474;BME280;53694;49.784;30.150;2023-01-28T06:05:14;100004.06;;;-0.97;72.89
61474;BME280;53694;49.784;30.150;2023-01-28T06:06:16;100007.55;;;-0.92;73.39
61474;BME280;53694;49.784;30.150;2023-01-28T06:07:17;99999.37;;;-0.77;73.30
61474;BME280;53694;49.784;30.150;2023-01-28T06:08:19;100004.92;;;-0.53;72.49
61474;BME280;53694;49.784;30.150;2023-01-28T06:09:21;100008.02;;;-0.30;71.28
61474;BME280;53694;49.784;30.150;2023-01-28T06:10:22;100006.48;;;-0.02;71.18
61474;BME280;53694;49.784;30.150;2023-01-28T06:11:24;100002.20;;;0.26;70.22
61474;BME280;53694;49.784;30.150;2023-01-28T06:12:25;100009.48;;;0.55;69.04
61474;BME280;53694;49.784;30.150;2023-01-28T06:13:27;100014.63;;;0.80;68.71
61474;BME280;53694;49.784;30.150;2023-01-28T06:14:29;100004.56;;;1.10;67.81
61474;BME280;53694;49.784;30.150;2023-01-28T06:15:30;100009.22;;;1.28;66.65
61474;BME280;53694;49.784;30.150;2023-01-28T06:16:32;100004.61;;;1.29;66.02
61474;BME280;53694;49.784;30.150;2023-01-28T06:17:34;100002.66;;;1.10;65.52
61474;BME280;53694;49.784;30.150;2023-01-28T06:18:35;100000.61;;;0.78;65.37
61474;BME280;53694;49.784;30.150;2023-01-28T06:19:37;99999.41;;;0.36;66.41
61474;BME280;53694;49.784;30.150;2023-01-28T06:20:38;100001.83;;;0.04;68.10
61474;BME280;53694;49.784;30.150;2023-01-28T06:21:40;100003.12;;;-0.23;69.31
61474;BME280;53694;49.784;30.150;2023-01-28T06:22:41;100004.88;;;-0.47;70.16
61474;BME280;53694;49.784;30.150;2023-01-28T06:23:43;100006.66;;;-0.72;70.86
61474;BME280;53694;49.784;30.150;2023-01-28T06:24:44;100006.48;;;-0.96;71.70
61474;BME280;53694;49.784;30.150;2023-01-28T06:25:46;99998.17;;;-1.10;72.32
61474;BME280;53694;49.784;30.150;2023-01-28T06:26:48;100003.00;;;-1.07;73.07
61474;BME280;53694;49.784;30.150;2023-01-28T06:27:49;100009.70;;;-0.89;73.36
61474;BME280;53694;49.784;30.150;2023-01-28T06:28:51;100009.29;;;-0.62;73.14
61474;BME280;53694;49.784;30.150;2023-01-28T06:29:52;100005.05;;;-0.29;72.36
61474;BME280;53694;49.784;30.150;2023-01-28T06:30:54;100016.43;;;0.03;70.85
61474;BME280;53694;49.784;30.150;2023-01-28T06:31:56;100019.17;;;0.32;70.19
61474;BME280;53694;49.784;30.150;2023-01-28T06:32:57;100014.86;;;0.60;69.52
61474;BME280;53694;49.784;30.150;2023-01-28T06:33:59;100014.30;;;0.87;68.49
61474;BME280;53694;49.784;30.150;2023-01-28T06:35:00;100018.08;;;1.10;67.45
61474;BME280;53694;49.784;30.150;2023-01-28T06:36:03;100014.17;;;1.21;66.26
61474;BME280;53694;49.784;30.150;2023-01-28T06:37:04;100011.77;;;1.19;65.83
61474;BME280;53694;49.784;30.150;2023-01-28T06:38:06;100017.85;;;1.06;66.17
61474;BME280;53694;49.784;30.150;2023-01-28T06:39:08;100011.36;;;0.83;66.19
61474;BME280;53694;49.784;30.150;2023-01-28T06:40:10;100000.63;;;0.49;66.84
61474;BME280;53694;49.784;30.150;2023-01-28T06:41:12;100019.22;;;0.27;67.55
61474;BME280;53694;49.784;30.150;2023-01-28T06:42:14;100007.83;;;-0.05;68.30
61474;BME280;53694;49.784;30.150;2023-01-28T06:43:15;100011.55;;;-0.35;69.33
61474;BME280;53694;49.784;30.150;2023-01-28T06:44:17;100008.20;;;-0.61;70.50
61474;BME280;53694;49.784;30.150;2023-01-28T06:45:18;100006.71;;;-0.87;71.58
61474;BME280;53694;49.784;30.150;2023-01-28T06:46:20;100002.48;;;-1.09;72.77
61474;BME280;53694;49.784;30.150;2023-01-28T06:47:22;100001.45;;;-1.23;73.25
61474;BME280;53694;49.784;30.150;2023-01-28T06:48:24;99988.52;;;-1.26;73.36
61474;BME280;53694;49.784;30.150;2023-01-28T06:49:26;99992.23;;;-1.12;73.29
61474;BME280;53694;49.784;30.150;2023-01-28T06:50:27;99988.38;;;-0.90;72.67
61474;BME280;53694;49.784;30.150;2023-01-28T06:51:29;99990.44;;;-0.67;72.47
61474;BME280;53694;49.784;30.150;2023-01-28T06:52:30;99994.88;;;-0.42;71.56
61474;BME280;53694;49.784;30.150;2023-01-28T06:53:32;99994.98;;;-0.18;71.01
61474;BME280;53694;49.784;30.150;2023-01-28T06:54:34;99999.12;;;0.09;70.23
61474;BME280;53694;49.784;30.150;2023-01-28T06:55:35;99995.36;;;0.34;68.92
61474;BME280;53694;49.784;30.150;2023-01-28T06:56:37;99999.21;;;0.57;68.51
61474;BME280;53694;49.784;30.150;2023-01-28T06:57:39;99999.51;;;0.79;68.20
61474;BME280;53694;49.784;30.150;2023-01-28T06:58:41;99996.34;;;0.96;67.55
61474;BME280;53694;49.784;30.150;2023-01-28T06:59:42;99993.07;;;0.99;67.22
61474;BME280;53694;49.784;30.150;2023-01-28T07:00:44;99991.33;;;0.84;66.57
61474;BME280;53694;49.784;30.150;2023-01-28T07:01:45;99997.02;;;0.59;66.76
61474;BME280;53694;49.784;30.150;2023-01-28T07:02:47;99989.75;;;0.30;67.71
61474;BME280;53694;49.784;30.150;2023-01-28T07:03:48;99986.44;;;0.04;68.49
61474;BME280;53694;49.784;30.150;2023-01-28T07:04:50;99985.87;;;-0.27;68.92
61474;BME280;53694;49.784;30.150;2023-01-28T07:05:51;99991.46;;;-0.58;69.85
61474;BME280;53694;49.784;30.150;2023-01-28T07:06:53;99983.24;;;-0.87;70.83
61474;BME280;53694;49.784;30.150;2023-01-28T07:07:54;99978.77;;;-1.12;71.95
61474;BME280;53694;49.784;30.150;2023-01-28T07:08:56;99981.82;;;-1.39;72.89
61474;BME280;53694;49.784;30.150;2023-01-28T07:09:57;99983.22;;;-1.57;73.84
61474;BME280;53694;49.784;30.150;2023-01-28T07:10:59;99987.52;;;-1.56;74.62
61474;BME280;53694;49.784;30.150;2023-01-28T07:12:01;99986.41;;;-1.39;74.60
61474;BME280;53694;49.784;30.150;2023-01-28T07:13:02;99989.56;;;-1.17;74.20
61474;BME280;53694;49.784;30.150;2023-01-28T07:14:04;99996.44;;;-0.85;73.79
61474;BME280;53694;49.784;30.150;2023-01-28T07:15:07;99984.94;;;-0.52;73.18
61474;BME280;53694;49.784;30.150;2023-01-28T07:16:09;99990.67;;;-0.19;72.32
61474;BME280;53694;49.784;30.150;2023-01-28T07:17:11;99983.91;;;0.18;71.20
61474;BME280;53694;49.784;30.150;2023-01-28T07:18:12;99989.88;;;0.44;69.66
61474;BME280;53694;49.784;30.150;2023-01-28T07:19:14;99990.12;;;0.71;68.87
61474;BME280;53694;49.784;30.150;2023-01-28T07:20:16;99997.21;;;0.91;66.78
61474;BME280;53694;49.784;30.150;2023-01-28T07:21:18;99998.18;;;1.00;66.41
61474;BME280;53694;49.784;30.150;2023-01-28T07:22:19;99988.06;;;0.87;66.08
61474;BME280;53694;49.784;30.150;2023-01-28T07:23:21;99988.81;;;0.69;66.96
61474;BME280;53694;49.784;30.150;2023-01-28T07:24:23;99991.48;;;0.45;66.88
61474;BME280;53694;49.784;30.150;2023-01-28T07:25:24;99993.13;;;0.12;67.62
61474;BME280;53694;49.784;30.150;2023-01-28T07:26:25;100000.37;;;-0.18;68.74
61474;BME280;53694;49.784;30.150;2023-01-28T07:27:27;99993.28;;;-0.48;69.51
61474;BME280;53694;49.784;30.150;2023-01-28T07:28:28;99999.97;;;-0.85;70.57
61474;BME280;53694;49.784;30.150;2023-01-28T07:29:30;99994.44;;;-1.19;71.75
61474;BME280;53694;49.784;30.150;2023-01-28T07:30:32;99988.57;;;-1.46;73.19
61474;BME280;53694;49.784;30.150;2023-01-28T07:31:33;99976.74;;;-1.56;74.12
61474;BME280;53694;49.784;30.150;2023-01-28T07:32:35;99983.73;;;-1.44;74.75
61474;BME280;53694;49.784;30.150;2023-01-28T07:33:37;99991.73;;;-1.24;74.51
61474;BME280;53694;49.784;30.150;2023-01-28T07:34:38;99993.77;;;-0.90;74.03
61474;BME280;53694;49.784;30.150;2023-01-28T07:35:39;99981.19;;;-0.56;73.17
61474;BME280;53694;49.784;30.150;2023-01-28T07:36:41;99985.81;;;-0.17;72.34
61474;BME280;53694;49.784;30.150;2023-01-28T07:37:56;99982.02;;;0.18;70.04
61474;BME280;53694;49.784;30.150;2023-01-28T07:38:54;99990.12;;;0.47;68.79
61474;BME280;53694;49.784;30.150;2023-01-28T07:39:55;99980.58;;;0.79;68.10
61474;BME280;53694;49.784;30.150;2023-01-28T07:40:57;99982.76;;;1.01;66.55
61474;BME280;53694;49.784;30.150;2023-01-28T07:41:59;99972.09;;;1.10;65.37
61474;BME280;53694;49.784;30.150;2023-01-28T07:43:00;99981.95;;;1.00;64.78
61474;BME280;53694;49.784;30.150;2023-01-28T07:44:02;99982.78;;;0.77;65.33
61474;BME280;53694;49.784;30.150;2023-01-28T07:45:04;99979.39;;;0.37;65.73
61474;BME280;53694;49.784;30.150;2023-01-28T07:46:07;99978.63;;;0.03;67.50
61474;BME280;53694;49.784;30.150;2023-01-28T07:47:09;99979.42;;;-0.31;68.69
61474;BME280;53694;49.784;30.150;2023-01-28T07:48:11;99972.61;;;-0.63;69.84
61474;BME280;53694;49.784;30.150;2023-01-28T07:49:14;99979.78;;;-0.92;71.03
61474;BME280;53694;49.784;30.150;2023-01-28T07:50:16;99974.74;;;-1.19;72.00
61474;BME280;53694;49.784;30.150;2023-01-28T07:51:17;99984.77;;;-1.40;72.94
61474;BME280;53694;49.784;30.150;2023-01-28T07:52:19;99981.59;;;-1.53;73.83
61474;BME280;53694;49.784;30.150;2023-01-28T07:53:20;99983.18;;;-1.46;74.34
61474;BME280;53694;49.784;30.150;2023-01-28T07:54:21;99985.29;;;-1.23;74.72
61474;BME280;53694;49.784;30.150;2023-01-28T07:55:23;99984.63;;;-0.94;73.51
61474;BME280;53694;49.784;30.150;2023-01-28T07:56:25;99987.16;;;-0.64;72.72
61474;BME280;53694;49.784;30.150;2023-01-28T07:57:26;99982.16;;;-0.36;71.77
61474;BME280;53694;49.784;30.150;2023-01-28T07:58:28;99982.27;;;-0.12;70.51
61474;BME280;53694;49.784;30.150;2023-01-28T07:59:29;99987.22;;;0.10;69.54
61474;BME280;53694;49.784;30.150;2023-01-28T08:00:32;99981.59;;;0.35;68.84
61474;BME280;53694;49.784;30.150;2023-01-28T08:01:34;99992.65;;;0.63;68.09
61474;BME280;53694;49.784;30.150;2023-01-28T08:02:36;99991.63;;;0.83;67.23
61474;BME280;53694;49.784;30.150;2023-01-28T08:03:37;99991.63;;;0.83;66.53
61474;BME280;53694;49.784;30.150;2023-01-28T08:04:39;99989.38;;;0.66;65.94
61474;BME280;53694;49.784;30.150;2023-01-28T08:05:46;99988.65;;;0.31;66.57
61474;BME280;53694;49.784;30.150;2023-01-28T08:06:48;99987.82;;;0.02;67.73
61474;BME280;53694;49.784;30.150;2023-01-28T08:07:49;99989.12;;;-0.30;68.60
61474;BME280;53694;49.784;30.150;2023-01-28T08:08:51;99988.77;;;-0.58;69.36
61474;BME280;53694;49.784;30.150;2023-01-28T12:10:03;99873.25;;;-3.54;89.45
61474;BME280;53694;49.784;30.150;2023-01-28T12:33:37;99874.62;;;0.34;67.04
61474;BME280;53694;49.784;30.150;2023-01-28T12:37:10;99868.60;;;-0.79;69.75
61474;BME280;53694;49.784;30.150;2023-01-28T12:40:49;99869.05;;;-1.71;74.24
61474;BME280;53694;49.784;30.150;2023-01-28T12:42:01;99867.22;;;-1.86;74.95
61474;BME280;53694;49.784;30.150;2023-01-28T12:43:05;99863.97;;;-1.78;75.28
61474;BME280;53694;49.784;30.150;2023-01-28T12:44:48;99870.06;;;-1.52;75.30
61474;BME280;53694;49.784;30.150;2023-01-28T12:45:37;99867.16;;;-1.11;74.16
61474;BME280;53694;49.784;30.150;2023-01-28T12:48:05;99860.11;;;-0.28;71.52
61474;BME280;53694;49.784;30.150;2023-01-28T12:49:15;99864.35;;;0.07;69.97
61474;BME280;53694;49.784;30.150;2023-01-28T12:50:26;99874.42;;;0.49;68.94
61474;BME280;53694;49.784;30.150;2023-01-28T12:51:31;99871.86;;;0.82;67.58
61474;BME280;53694;49.784;30.150;2023-01-28T12:52:38;99873.20;;;1.04;66.25
61474;BME280;53694;49.784;30.150;2023-01-28T12:53:56;99868.36;;;1.00;65.31
61474;BME280;53694;49.784;30.150;2023-01-28T12:55:04;99870.30;;;0.76;65.46
61474;BME280;53694;49.784;30.150;2023-01-28T12:57:27;99862.45;;;0.08;66.92
61474;BME280;53694;49.784;30.150;2023-01-28T12:58:43;99864.41;;;-0.27;67.61
61474;BME280;53694;49.784;30.150;2023-01-28T13:00:02;99869.31;;;-0.63;68.31
61474;BME280;53694;49.784;30.150;2023-01-28T13:01:04;99866.58;;;-0.97;69.97
61474;BME280;53694;49.784;30.150;2023-01-28T13:04:38;99859.60;;;-1.63;73.00
61474;BME280;53694;49.784;30.150;2023-01-28T13:05:39;99868.24;;;-1.71;73.86
61474;BME280;53694;49.784;30.150;2023-01-28T13:06:46;99859.58;;;-1.58;73.43
61474;BME280;53694;49.784;30.150;2023-01-28T13:08:00;99858.15;;;-1.40;73.25
61474;BME280;53694;49.784;30.150;2023-01-28T13:09:09;99860.42;;;-1.08;73.04
61474;BME280;53694;49.784;30.150;2023-01-28T13:10:27;99858.31;;;-0.72;71.36
61474;BME280;53694;49.784;30.150;2023-01-28T13:11:31;99855.38;;;-0.41;70.50
61474;BME280;53694;49.784;30.150;2023-01-28T13:12:32;99866.81;;;0.04;69.54
61474;BME280;53694;49.784;30.150;2023-01-28T13:13:39;99866.45;;;0.39;68.26
61474;BME280;53694;49.784;30.150;2023-01-28T13:14:42;99862.80;;;0.73;67.28
61474;BME280;53694;49.784;30.150;2023-01-28T13:15:45;99863.75;;;1.01;66.11
61474;BME280;53694;49.784;30.150;2023-01-28T13:16:47;99863.98;;;1.05;65.31
61474;BME280;53694;49.784;30.150;2023-01-28T13:18:00;99863.03;;;0.95;65.08
61474;BME280;53694;49.784;30.150;2023-01-28T13:19:21;99868.47;;;0.71;64.84
61474;BME280;53694;49.784;30.150;2023-01-28T13:20:15;99862.01;;;0.24;65.53
61474;BME280;53694;49.784;30.150;2023-01-28T13:22:36;99860.03;;;-0.52;67.42
61474;BME280;53694;49.784;30.150;2023-01-28T13:23:44;99870.29;;;-0.88;68.85
61474;BME280;53694;49.784;30.150;2023-01-28T13:24:46;99867.23;;;-1.21;70.08
61474;BME280;53694;49.784;30.150;2023-01-28T13:25:49;99871.64;;;-1.45;71.04
61474;BME280;53694;49.784;30.150;2023-01-28T13:26:57;99855.87;;;-1.72;72.00
61474;BME280;53694;49.784;30.150;2023-01-28T13:27:59;99864.75;;;-1.72;72.59
61474;BME280;53694;49.784;30.150;2023-01-28T13:30:29;99868.12;;;-1.41;72.11
61474;BME280;53694;49.784;30.150;2023-01-28T13:31:37;99871.13;;;-0.98;71.84
61474;BME280;53694;49.784;30.150;2023-01-28T13:32:42;99864.72;;;-0.63;70.47
61474;BME280;53694;49.784;30.150;2023-01-28T13:35:04;99867.86;;;0.08;68.45
61474;BME280;53694;49.784;30.150;2023-01-28T13:37:35;99875.78;;;0.71;65.83
61474;BME280;53694;49.784;30.150;2023-01-28T13:38:34;99876.81;;;0.75;64.82
61474;BME280;53694;49.784;30.150;2023-01-28T13:39:36;99874.02;;;0.61;64.81
61474;BME280;53694;49.784;30.150;2023-01-28T13:40:39;99867.55;;;0.38;64.91
61474;BME280;53694;49.784;30.150;2023-01-28T13:41:51;99865.13;;;0.13;65.28
61474;BME280;53694;49.784;30.150;2023-01-28T13:42:59;99867.04;;;-0.17;65.81
61474;BME280;53694;49.784;30.150;2023-01-28T13:44:00;99859.78;;;-0.56;66.70
61474;BME280;53694;49.784;30.150;2023-01-28T13:46:28;99864.02;;;-1.23;68.95
61474;BME280;53694;49.784;30.150;2023-01-28T13:47:32;99873.02;;;-1.53;70.43
61474;BME280;53694;49.784;30.150;2023-01-28T13:49:44;99869.38;;;-1.93;72.45
61474;BME280;53694;49.784;30.150;2023-01-28T13:50:48;99876.66;;;-1.98;73.29
61474;BME280;53694;49.784;30.150;2023-01-28T13:51:58;99877.72;;;-1.89;73.49
61474;BME280;53694;49.784;30.150;2023-01-28T13:54:17;99870.82;;;-1.36;72.89
61474;BME280;53694;49.784;30.150;2023-01-28T13:55:25;99877.58;;;-0.94;72.30
61474;BME280;53694;49.784;30.150;2023-01-28T13:56:31;99872.17;;;-0.49;70.92
61474;BME280;53694;49.784;30.150;2023-01-28T14:01:46;99872.09;;;0.86;65.33
61474;BME280;53694;49.784;30.150;2023-01-28T14:06:08;99867.41;;;0.01;64.76
61474;BME280;53694;49.784;30.150;2023-01-28T14:07:22;99863.52;;;-0.46;66.45
61474;BME280;53694;49.784;30.150;2023-01-28T14:13:12;99883.14;;;-2.15;71.91
61474;BME280;53694;49.784;30.150;2023-01-28T14:16:29;99879.14;;;-2.38;74.13
61474;BME280;53694;49.784;30.150;2023-01-28T14:17:45;99872.35;;;-1.94;73.10
61474;BME280;53694;49.784;30.150;2023-01-28T14:18:48;99877.06;;;-1.51;71.88
61474;BME280;53694;49.784;30.150;2023-01-28T14:19:51;99874.41;;;-1.01;70.27
61474;BME280;53694;49.784;30.150;2023-01-28T14:20:55;99877.45;;;-0.73;67.56
61474;BME280;53694;49.784;30.150;2023-01-28T14:22:07;99874.81;;;-0.44;67.39
61474;BME280;53694;49.784;30.150;2023-01-28T14:23:17;99880.23;;;-0.15;66.13
61474;BME280;53694;49.784;30.150;2023-01-28T14:24:19;99876.02;;;0.03;64.52
61474;BME280;53694;49.784;30.150;2023-01-28T14:25:32;99879.33;;;-0.06;64.69
61474;BME280;53694;49.784;30.150;2023-01-28T14:27:02;99877.86;;;-0.22;65.28
61474;BME280;53694;49.784;30.150;2023-01-28T14:28:05;99874.52;;;-0.43;66.00
61474;BME280;53694;49.784;30.150;2023-01-28T14:29:15;99868.06;;;-0.81;67.29
61474;BME280;53694;49.784;30.150;2023-01-28T14:30:44;99872.26;;;-1.04;68.16
61474;BME280;53694;49.784;30.150;2023-01-28T14:31:45;99872.39;;;-1.30;68.68
61474;BME280;53694;49.784;30.150;2023-01-28T14:32:49;99871.72;;;-1.66;69.85
61474;BME280;53694;49.784;30.150;2023-01-28T14:33:53;99868.30;;;-1.87;70.65
61474;BME280;53694;49.784;30.150;2023-01-28T14:34:58;99864.30;;;-2.10;71.50
61474;BME280;53694;49.784;30.150;2023-01-28T14:36:01;99869.97;;;-2.27;72.37